createdAt,value
2018-10-15T00:05:06.141Z,13.30
2018-10-15T00:15:17.516Z,13.00
2018-10-15T00:25:21.043Z,12.90
2018-10-15T00:35:24.358Z,12.90
2018-10-15T00:45:27.689Z,12.90
2018-10-15T00:55:31.032Z,12.80
2018-10-15T01:05:34.373Z,12.70
2018-10-15T01:15:37.724Z,12.60
2018-10-15T01:25:41.063Z,12.50
2018-10-15T01:35:44.406Z,12.40
2018-10-15T01:45:48.692Z,12.30
2018-10-15T01:55:52.066Z,12.30
2018-10-15T02:05:56.001Z,12.30
2018-10-15T02:15:59.320Z,12.10
2018-10-15T02:26:02.764Z,12.10
2018-10-15T02:36:06.329Z,12.00
2018-10-15T02:46:09.712Z,12.00
2018-10-15T02:56:13.030Z,11.80
2018-10-15T03:06:16.373Z,11.60
2018-10-15T03:16:19.707Z,11.60
2018-10-15T03:26:23.652Z,11.60
2018-10-15T03:36:26.995Z,11.60
2018-10-15T03:46:30.383Z,11.60
2018-10-15T03:56:33.712Z,11.40
2018-10-15T04:06:37.045Z,11.50
2018-10-15T04:16:41.108Z,11.30
2018-10-15T04:26:44.688Z,11.10
2018-10-15T04:36:48.032Z,11.10
2018-10-15T04:46:54.344Z,11.10
2018-10-15T04:56:57.796Z,10.90
2018-10-15T05:07:01.120Z,11.00
2018-10-15T05:17:04.589Z,11.00
2018-10-15T05:27:08.326Z,10.90
2018-10-15T05:37:11.760Z,10.90
2018-10-15T05:47:15.164Z,10.90
2018-10-15T05:57:18.465Z,10.90
2018-10-15T06:07:21.792Z,10.70
2018-10-15T06:17:25.414Z,10.90
2018-10-15T06:27:28.910Z,11.00
2018-10-15T06:37:32.440Z,11.10
2018-10-15T06:47:36.013Z,11.30
2018-10-15T06:57:39.820Z,11.50
2018-10-15T07:07:44.021Z,11.50
2018-10-15T07:17:47.483Z,11.60
2018-10-15T07:27:51.337Z,11.50
2018-10-15T07:37:54.635Z,11.70
2018-10-15T07:47:57.868Z,11.90
2018-10-15T07:58:01.855Z,12.40
2018-10-15T08:08:05.628Z,12.60
2018-10-15T08:18:09.295Z,13.00
2018-10-15T08:28:12.955Z,13.30
2018-10-15T08:38:16.580Z,13.70
2018-10-15T08:48:19.949Z,14.00
2018-10-15T08:58:23.249Z,14.30
2018-10-15T09:08:26.656Z,14.60
2018-10-15T09:18:29.982Z,15.10
2018-10-15T09:28:33.330Z,15.60
2018-10-15T09:38:36.927Z,15.80
2018-10-15T09:48:41.186Z,16.10
2018-10-15T09:58:44.567Z,16.60
2018-10-15T10:08:47.923Z,16.80
2018-10-15T10:18:51.240Z,17.10
2018-10-15T10:28:54.733Z,17.40
2018-10-15T10:38:59.704Z,17.70
2018-10-15T10:49:03.187Z,18.00
2018-10-15T10:59:06.450Z,18.30
2018-10-15T11:19:18.741Z,18.70
2018-10-15T11:29:22.004Z,19.00
2018-10-15T11:49:43.182Z,19.70
2018-10-15T11:59:46.513Z,20.20
2018-10-15T12:09:49.852Z,20.60
2018-10-15T12:19:53.200Z,20.80
2018-10-15T12:29:56.905Z,20.90
2018-10-15T12:40:00.138Z,21.00
2018-10-15T12:50:04.077Z,21.10
2018-10-15T13:00:07.982Z,21.10
2018-10-15T13:10:11.519Z,21.10
2018-10-15T13:20:14.781Z,21.10
2018-10-15T13:30:18.181Z,21.20
2018-10-15T13:40:21.528Z,21.20
2018-10-15T13:50:24.810Z,21.30
2018-10-15T14:00:30.525Z,21.30
2018-10-15T14:10:33.958Z,21.50
2018-10-15T14:20:37.298Z,22.10
2018-10-15T14:30:40.621Z,22.30
2018-10-15T14:40:43.877Z,22.30
2018-10-15T14:50:47.143Z,22.60
2018-10-15T15:00:50.584Z,23.10
2018-10-15T15:21:14.216Z,22.60
2018-10-15T15:31:17.506Z,21.80
2018-10-15T15:41:20.822Z,21.40
2018-10-15T15:51:24.041Z,20.90
2018-10-15T16:01:28.099Z,20.50
2018-10-15T16:11:31.420Z,20.10
2018-10-15T16:21:34.960Z,19.70
2018-10-15T16:31:38.572Z,19.40
2018-10-15T16:41:42.754Z,19.10
2018-10-15T16:51:46.215Z,18.80
2018-10-15T17:01:51.762Z,18.40
2018-10-15T17:11:55.185Z,18.20
2018-10-15T17:21:58.921Z,18.00
2018-10-15T17:32:02.180Z,17.70
2018-10-15T17:42:05.855Z,17.40
2018-10-15T17:52:09.365Z,17.30
2018-10-15T18:02:12.705Z,17.00
2018-10-15T18:12:16.046Z,16.80
2018-10-15T18:22:19.402Z,16.70
2018-10-15T18:32:23.290Z,16.50
2018-10-15T18:42:26.775Z,16.30
2018-10-15T18:52:30.627Z,16.10
2018-10-15T19:02:34.044Z,15.90
2018-10-15T19:12:37.630Z,15.60
2018-10-15T19:22:41.125Z,15.50
2018-10-15T19:32:44.703Z,15.40
2018-10-15T19:42:47.966Z,15.30
2018-10-15T19:52:51.212Z,15.20
2018-10-15T20:02:54.665Z,15.10
2018-10-15T20:12:58.100Z,14.90
2018-10-15T20:23:01.372Z,14.70
2018-10-15T20:33:04.792Z,14.70
2018-10-15T20:43:08.435Z,14.50
2018-10-15T20:53:11.922Z,14.40
2018-10-15T21:03:15.380Z,14.30
2018-10-15T21:13:18.816Z,14.10
2018-10-15T21:23:25.049Z,13.90
2018-10-15T21:33:28.477Z,13.90
2018-10-15T21:43:31.737Z,13.80
2018-10-15T21:53:35.446Z,13.60
2018-10-15T22:03:38.798Z,13.50
2018-10-15T22:13:42.115Z,13.50
2018-10-15T22:23:45.256Z,13.40
2018-10-15T22:33:48.516Z,13.20
2018-10-15T22:43:51.759Z,13.20
2018-10-15T22:53:54.987Z,13.10
2018-10-15T23:03:58.212Z,12.90
2018-10-15T23:14:01.483Z,12.70
2018-10-15T23:24:04.888Z,12.60
2018-10-15T23:34:08.840Z,12.40
2018-10-15T23:44:12.116Z,12.40
2018-10-15T23:54:15.370Z,12.30
